createdAt,value
2019-06-27T00:00:11.355Z,1012.40
2019-06-27T00:01:11.345Z,1012.39
2019-06-27T00:02:11.355Z,1012.33
2019-06-27T00:03:11.332Z,1012.35
2019-06-27T00:04:11.308Z,1012.36
2019-06-27T00:05:11.298Z,1012.37
2019-06-27T00:06:11.284Z,1012.42
2019-06-27T00:07:11.275Z,1012.40
2019-06-27T00:08:11.282Z,1012.42
2019-06-27T00:09:11.255Z,1012.40
2019-06-27T00:10:11.253Z,1012.35
2019-06-27T00:11:11.231Z,1012.35
2019-06-27T00:12:11.215Z,1012.35
2019-06-27T00:13:11.207Z,1012.41
2019-06-27T00:14:11.209Z,1012.38
2019-06-27T00:15:11.183Z,1012.40
2019-06-27T00:16:11.195Z,1012.42
2019-06-27T00:17:11.160Z,1012.37
2019-06-27T00:18:11.150Z,1012.43
2019-06-27T00:19:11.151Z,1012.42
2019-06-27T00:20:11.128Z,1012.48
2019-06-27T00:21:11.115Z,1012.47
2019-06-27T00:22:11.128Z,1012.49
2019-06-27T00:23:11.093Z,1012.50
2019-06-27T00:24:11.079Z,1012.49
2019-06-27T00:25:11.087Z,1012.49
2019-06-27T00:26:11.061Z,1012.46
2019-06-27T00:27:11.048Z,1012.50
2019-06-27T00:28:11.049Z,1012.50
2019-06-27T00:29:11.021Z,1012.47
2019-06-27T00:30:11.012Z,1012.52
2019-06-27T00:31:11.023Z,1012.55
2019-06-27T00:32:11.070Z,1012.50
2019-06-27T00:33:10.979Z,1012.52
2019-06-27T00:34:10.975Z,1012.54
2019-06-27T00:35:10.956Z,1012.58
2019-06-27T00:36:10.951Z,1012.57
2019-06-27T00:37:10.955Z,1012.65
2019-06-27T00:38:10.927Z,1012.60
2019-06-27T00:39:10.911Z,1012.60
2019-06-27T00:40:10.919Z,1012.57
2019-06-27T00:41:10.904Z,1012.55
2019-06-27T00:42:10.875Z,1012.51
2019-06-27T00:43:10.883Z,1012.53
2019-06-27T00:44:10.858Z,1012.49
2019-06-27T00:45:10.856Z,1012.49
2019-06-27T00:46:10.837Z,1012.49
2019-06-27T00:47:10.822Z,1012.52
2019-06-27T00:48:10.812Z,1012.52
2019-06-27T00:49:10.826Z,1012.56
2019-06-27T00:50:10.788Z,1012.54
2019-06-27T00:51:10.776Z,1012.55
2019-06-27T00:52:10.788Z,1012.52
2019-06-27T00:53:10.752Z,1012.52
2019-06-27T00:54:10.743Z,1012.52
2019-06-27T00:55:10.746Z,1012.52
2019-06-27T00:56:10.721Z,1012.55
2019-06-27T00:57:14.531Z,1012.53
2019-06-27T00:58:10.727Z,1012.50
2019-06-27T00:59:10.684Z,1012.50
2019-06-27T01:00:10.683Z,1012.53
2019-06-27T01:01:10.660Z,1012.55
2019-06-27T01:02:10.653Z,1012.55
2019-06-27T01:03:10.640Z,1012.56
2019-06-27T01:04:10.648Z,1012.55
2019-06-27T01:05:10.644Z,1012.59
2019-06-27T01:06:10.603Z,1012.59
2019-06-27T01:07:10.595Z,1012.56
2019-06-27T01:08:10.584Z,1012.55
2019-06-27T01:09:10.572Z,1012.57
2019-06-27T01:10:10.571Z,1012.57
2019-06-27T01:11:10.583Z,1012.50
2019-06-27T01:12:10.539Z,1012.49
2019-06-27T01:13:10.527Z,1012.56
2019-06-27T01:14:10.515Z,1012.53
2019-06-27T01:15:10.507Z,1012.55
2019-06-27T01:16:10.503Z,1012.54
2019-06-27T01:17:10.491Z,1012.62
2019-06-27T01:18:10.471Z,1012.63
2019-06-27T01:19:10.461Z,1012.62
2019-06-27T01:20:10.449Z,1012.62
2019-06-27T01:21:10.439Z,1012.62
2019-06-27T01:22:10.452Z,1012.57
2019-06-27T01:23:10.416Z,1012.61
2019-06-27T01:24:10.412Z,1012.62
2019-06-27T01:25:10.391Z,1012.61
2019-06-27T01:26:10.387Z,1012.60
2019-06-27T01:27:10.394Z,1012.61
2019-06-27T01:28:10.368Z,1012.62
2019-06-27T01:29:10.344Z,1012.62
2019-06-27T01:30:10.336Z,1012.58
2019-06-27T01:31:10.324Z,1012.58
2019-06-27T01:32:10.312Z,1012.62
2019-06-27T01:33:10.311Z,1012.62
2019-06-27T01:34:10.306Z,1012.66
2019-06-27T01:35:10.279Z,1012.63
2019-06-27T01:36:10.287Z,1012.65
2019-06-27T01:37:10.256Z,1012.63
2019-06-27T01:38:10.259Z,1012.65
2019-06-27T01:39:10.231Z,1012.60
2019-06-27T01:40:10.231Z,1012.66
2019-06-27T01:41:10.211Z,1012.63
2019-06-27T01:42:10.241Z,1012.62
2019-06-27T01:43:10.190Z,1012.61
2019-06-27T01:44:10.199Z,1012.58
2019-06-27T01:45:10.175Z,1012.57
2019-06-27T01:46:10.183Z,1012.60
2019-06-27T01:47:10.140Z,1012.59
2019-06-27T01:48:10.131Z,1012.64
2019-06-27T01:49:10.120Z,1012.61
2019-06-27T01:50:10.117Z,1012.61
2019-06-27T01:51:10.095Z,1012.58
2019-06-27T01:52:10.118Z,1012.54
2019-06-27T01:53:10.069Z,1012.54
2019-06-27T01:54:10.063Z,1012.58
2019-06-27T01:55:10.060Z,1012.49
2019-06-27T01:56:10.043Z,1012.57
2019-06-27T01:57:10.028Z,1012.59
2019-06-27T01:58:10.032Z,1012.58
2019-06-27T01:59:10.009Z,1012.58
2019-06-27T02:00:10.086Z,1012.56
2019-06-27T02:01:10.000Z,1012.57
2019-06-27T02:02:09.975Z,1012.55
2019-06-27T02:03:09.955Z,1012.53
2019-06-27T02:04:09.959Z,1012.56
2019-06-27T02:05:09.935Z,1012.61
2019-06-27T02:06:09.927Z,1012.62
2019-06-27T02:07:09.929Z,1012.60
2019-06-27T02:08:09.903Z,1012.60
2019-06-27T02:09:09.887Z,1012.63
2019-06-27T02:10:09.898Z,1012.67
2019-06-27T02:11:09.867Z,1012.68
2019-06-27T02:12:09.867Z,1012.63
2019-06-27T02:13:09.871Z,1012.63
2019-06-27T02:14:09.868Z,1012.64
2019-06-27T02:15:09.823Z,1012.65
2019-06-27T02:16:09.823Z,1012.68
2019-06-27T02:17:09.801Z,1012.65
2019-06-27T02:18:09.799Z,1012.69
2019-06-27T02:19:09.791Z,1012.65
2019-06-27T02:20:09.783Z,1012.64
2019-06-27T02:21:09.755Z,1012.65
2019-06-27T02:22:09.769Z,1012.67
2019-06-27T02:23:09.734Z,1012.64
2019-06-27T02:24:09.739Z,1012.68
2019-06-27T02:25:09.711Z,1012.66
2019-06-27T02:26:09.700Z,1012.62
2019-06-27T02:27:09.691Z,1012.67
2019-06-27T02:28:09.683Z,1012.63
2019-06-27T02:29:09.663Z,1012.64
2019-06-27T02:30:09.668Z,1012.68
2019-06-27T02:31:09.656Z,1012.65
2019-06-27T02:32:09.637Z,1012.75
2019-06-27T02:33:09.626Z,1012.67
2019-06-27T02:34:09.631Z,1012.70
2019-06-27T02:35:09.602Z,1012.70
2019-06-27T02:36:09.613Z,1012.71
2019-06-27T02:37:09.580Z,1012.68
2019-06-27T02:38:09.573Z,1012.67
2019-06-27T02:39:09.551Z,1012.66
2019-06-27T02:40:09.556Z,1012.69
2019-06-27T02:41:09.531Z,1012.72
2019-06-27T02:42:09.544Z,1012.67
2019-06-27T02:43:09.504Z,1012.71
2019-06-27T02:44:09.493Z,1012.74
2019-06-27T02:45:09.491Z,1012.79
2019-06-27T02:46:09.483Z,1012.80
2019-06-27T02:47:09.468Z,1012.81
2019-06-27T02:48:09.447Z,1012.82
2019-06-27T02:49:09.452Z,1012.82
2019-06-27T02:50:09.452Z,1012.86
2019-06-27T02:51:09.416Z,1012.86
2019-06-27T02:52:09.428Z,1012.93
2019-06-27T02:53:09.398Z,1012.93
2019-06-27T02:54:09.400Z,1012.84
2019-06-27T02:55:09.376Z,1012.85
2019-06-27T02:56:09.379Z,1012.88
2019-06-27T02:57:09.344Z,1012.87
2019-06-27T02:58:29.140Z,1012.86
2019-06-27T02:59:10.325Z,1012.87
2019-06-27T03:00:09.316Z,1012.90
2019-06-27T03:01:09.309Z,1012.84
2019-06-27T03:02:09.307Z,1012.85
2019-06-27T03:03:09.286Z,1012.86
2019-06-27T03:04:09.283Z,1012.83
2019-06-27T03:05:09.280Z,1012.87
2019-06-27T03:06:09.245Z,1012.92
2019-06-27T03:07:09.276Z,1012.97
2019-06-27T03:08:09.237Z,1012.96
2019-06-27T03:09:09.211Z,1012.99
2019-06-27T03:10:09.241Z,1012.98
2019-06-27T03:11:09.190Z,1012.96
2019-06-27T03:12:09.196Z,1012.97
2019-06-27T03:13:09.200Z,1012.95
2019-06-27T03:14:09.176Z,1012.95
2019-06-27T03:15:09.144Z,1012.97
2019-06-27T03:16:09.151Z,1013.06
2019-06-27T03:17:09.144Z,1013.07
2019-06-27T03:18:09.111Z,1013.06
2019-06-27T03:19:09.097Z,1013.04
2019-06-27T03:20:09.107Z,1013.05
2019-06-27T03:21:09.098Z,1013.04
2019-06-27T03:22:09.095Z,1012.98
2019-06-27T03:23:09.071Z,1013.00
2019-06-27T03:24:09.068Z,1013.01
2019-06-27T03:25:09.047Z,1013.01
2019-06-27T03:26:09.028Z,1013.04
2019-06-27T03:27:09.007Z,1013.01
2019-06-27T03:28:09.007Z,1013.00
2019-06-27T03:29:08.987Z,1013.04
2019-06-27T03:30:09.093Z,1013.04
2019-06-27T03:31:08.976Z,1012.99
2019-06-27T03:32:08.963Z,1013.02
2019-06-27T03:33:08.999Z,1013.03
2019-06-27T03:34:08.956Z,1013.01
2019-06-27T03:35:08.932Z,1013.03
2019-06-27T03:36:08.935Z,1013.03
2019-06-27T03:37:08.896Z,1013.00
2019-06-27T03:38:08.917Z,1013.02
2019-06-27T03:39:08.871Z,1013.00
2019-06-27T03:40:08.914Z,1013.00
2019-06-27T03:41:08.855Z,1013.00
2019-06-27T03:42:08.855Z,1012.98
2019-06-27T03:43:08.852Z,1013.00
2019-06-27T03:44:08.821Z,1012.98
2019-06-27T03:45:08.817Z,1012.99
2019-06-27T03:46:08.812Z,1013.01
2019-06-27T03:47:08.790Z,1013.01
2019-06-27T03:48:08.795Z,1013.00
2019-06-27T03:49:08.759Z,1013.04
2019-06-27T03:50:08.754Z,1013.04
2019-06-27T03:51:08.735Z,1013.07
2019-06-27T03:52:08.739Z,1013.05
2019-06-27T03:53:08.721Z,1013.08
2019-06-27T03:54:08.715Z,1013.04
2019-06-27T03:55:08.707Z,1013.09
2019-06-27T03:56:08.694Z,1013.10
2019-06-27T03:57:08.668Z,1013.10
2019-06-27T03:58:08.710Z,1013.11
2019-06-27T03:59:13.166Z,1013.13
2019-06-27T04:00:09.657Z,1013.12
2019-06-27T04:01:08.623Z,1013.11
2019-06-27T04:02:08.612Z,1013.14
2019-06-27T04:03:08.619Z,1013.09
2019-06-27T04:04:08.638Z,1013.10
2019-06-27T04:05:08.577Z,1013.10
2019-06-27T04:06:08.574Z,1013.14
2019-06-27T04:07:08.556Z,1013.11
2019-06-27T04:08:08.544Z,1013.15
2019-06-27T04:09:08.530Z,1013.08
2019-06-27T04:10:08.539Z,1013.10
2019-06-27T04:11:08.523Z,1013.09
2019-06-27T04:12:08.500Z,1013.06
2019-06-27T04:13:08.487Z,1013.06
2019-06-27T04:14:08.475Z,1013.07
2019-06-27T04:15:08.462Z,1013.07
2019-06-27T04:16:08.455Z,1013.06
2019-06-27T04:17:08.475Z,1013.10
2019-06-27T04:18:08.435Z,1013.10
2019-06-27T04:19:08.431Z,1013.07
2019-06-27T04:20:08.422Z,1013.12
2019-06-27T04:21:08.422Z,1013.05
2019-06-27T04:22:08.443Z,1013.05
2019-06-27T04:23:08.374Z,1013.08
2019-06-27T04:24:08.393Z,1013.08
2019-06-27T04:25:08.397Z,1013.09
2019-06-27T04:26:08.345Z,1013.07
2019-06-27T04:27:08.338Z,1013.05
2019-06-27T04:28:08.337Z,1013.10
2019-06-27T04:29:08.318Z,1013.11
2019-06-27T04:30:08.299Z,1013.07
2019-06-27T04:31:08.297Z,1013.14
2019-06-27T04:32:08.288Z,1013.12
2019-06-27T04:33:08.269Z,1013.14
2019-06-27T04:34:08.255Z,1013.11
2019-06-27T04:35:08.254Z,1013.11
2019-06-27T04:36:08.267Z,1013.16
2019-06-27T04:37:08.235Z,1013.16
2019-06-27T04:38:08.203Z,1013.13
2019-06-27T04:39:08.196Z,1013.16
2019-06-27T04:40:08.192Z,1013.16
2019-06-27T04:41:08.188Z,1013.22
2019-06-27T04:42:08.191Z,1013.25
2019-06-27T04:43:08.150Z,1013.29
2019-06-27T04:44:08.137Z,1013.27
2019-06-27T04:45:08.127Z,1013.27
2019-06-27T04:46:08.114Z,1013.31
2019-06-27T04:47:08.127Z,1013.32
2019-06-27T04:48:08.089Z,1013.34
2019-06-27T04:49:12.962Z,1013.35
2019-06-27T04:50:09.075Z,1013.33
2019-06-27T04:51:08.066Z,1013.34
2019-06-27T04:52:08.044Z,1013.32
2019-06-27T04:53:08.048Z,1013.35
2019-06-27T04:54:08.043Z,1013.36
2019-06-27T04:55:08.009Z,1013.33
2019-06-27T04:56:08.000Z,1013.31
2019-06-27T04:57:08.034Z,1013.34
2019-06-27T04:58:07.978Z,1013.32
2019-06-27T04:59:07.973Z,1013.42
2019-06-27T05:00:07.968Z,1013.36
2019-06-27T05:01:07.943Z,1013.36
2019-06-27T05:02:07.958Z,1013.39
2019-06-27T05:03:07.931Z,1013.44
2019-06-27T05:04:07.938Z,1013.40
2019-06-27T05:05:07.898Z,1013.36
2019-06-27T05:06:07.948Z,1013.40
2019-06-27T05:07:07.874Z,1013.41
2019-06-27T05:08:07.863Z,1013.40
2019-06-27T05:09:07.855Z,1013.42
2019-06-27T05:10:07.855Z,1013.41
2019-06-27T05:11:07.846Z,1013.40
2019-06-27T05:12:07.838Z,1013.41
2019-06-27T05:13:07.814Z,1013.39
2019-06-27T05:14:07.797Z,1013.41
2019-06-27T05:15:07.804Z,1013.41
2019-06-27T05:16:07.814Z,1013.39
2019-06-27T05:17:07.760Z,1013.41
2019-06-27T05:18:07.759Z,1013.42
2019-06-27T05:19:07.738Z,1013.39
2019-06-27T05:20:07.726Z,1013.43
2019-06-27T05:21:07.714Z,1013.45
2019-06-27T05:22:07.737Z,1013.52
2019-06-27T05:23:07.705Z,1013.49
2019-06-27T05:24:07.678Z,1013.49
2019-06-27T05:25:07.670Z,1013.48
2019-06-27T05:26:07.658Z,1013.50
2019-06-27T05:27:07.745Z,1013.45
2019-06-27T05:28:07.645Z,1013.46
2019-06-27T05:29:07.629Z,1013.44
2019-06-27T05:30:09.977Z,1013.41
2019-06-27T05:31:07.602Z,1013.44
2019-06-27T05:32:07.590Z,1013.45
2019-06-27T05:33:07.610Z,1013.47
2019-06-27T05:34:07.565Z,1013.52
2019-06-27T05:35:07.554Z,1013.52
2019-06-27T05:36:07.560Z,1013.54
2019-06-27T05:37:07.546Z,1013.53
2019-06-27T05:38:07.523Z,1013.51
2019-06-27T05:39:07.525Z,1013.52
2019-06-27T05:40:07.499Z,1013.54
2019-06-27T05:41:07.485Z,1013.57
2019-06-27T05:42:07.474Z,1013.50
2019-06-27T05:43:07.470Z,1013.55
2019-06-27T05:44:07.485Z,1013.57
2019-06-27T05:45:07.445Z,1013.56
2019-06-27T05:46:07.431Z,1013.58
2019-06-27T05:47:07.421Z,1013.58
2019-06-27T05:48:07.421Z,1013.51
2019-06-27T05:49:07.402Z,1013.57
2019-06-27T05:50:07.405Z,1013.59
2019-06-27T05:51:07.374Z,1013.60
2019-06-27T05:52:07.362Z,1013.61
2019-06-27T05:53:07.349Z,1013.63
2019-06-27T05:54:07.365Z,1013.66
2019-06-27T05:55:07.353Z,1013.68
2019-06-27T05:56:07.335Z,1013.65
2019-06-27T05:57:07.334Z,1013.67
2019-06-27T05:58:07.298Z,1013.68
2019-06-27T05:59:07.291Z,1013.65
2019-06-27T06:00:07.280Z,1013.68
2019-06-27T06:01:07.278Z,1013.64
2019-06-27T06:02:07.258Z,1013.65
2019-06-27T06:03:07.238Z,1013.70
2019-06-27T06:04:07.231Z,1013.68
2019-06-27T06:05:07.215Z,1013.71
2019-06-27T06:06:07.208Z,1013.65
2019-06-27T06:07:07.210Z,1013.69
2019-06-27T06:08:07.193Z,1013.73
2019-06-27T06:09:07.170Z,1013.66
2019-06-27T06:10:07.158Z,1013.62
2019-06-27T06:11:07.153Z,1013.62
2019-06-27T06:12:07.151Z,1013.63
2019-06-27T06:13:07.139Z,1013.61
2019-06-27T06:14:07.134Z,1013.62
2019-06-27T06:15:07.109Z,1013.66
2019-06-27T06:16:07.097Z,1013.64
2019-06-27T06:17:07.104Z,1013.63
2019-06-27T06:18:07.073Z,1013.62
2019-06-27T06:19:07.062Z,1013.59
2019-06-27T06:20:07.059Z,1013.55
2019-06-27T06:21:07.033Z,1013.52
2019-06-27T06:22:07.023Z,1013.55
2019-06-27T06:23:07.014Z,1013.59
2019-06-27T06:24:07.013Z,1013.58
2019-06-27T06:25:06.992Z,1013.55
2019-06-27T06:26:06.989Z,1013.56
2019-06-27T06:27:06.967Z,1013.62
2019-06-27T06:28:06.954Z,1013.60
2019-06-27T06:29:06.941Z,1013.63
2019-06-27T06:30:06.942Z,1013.63
2019-06-27T06:31:06.927Z,1013.60
2019-06-27T06:32:06.914Z,1013.61
2019-06-27T06:33:06.903Z,1013.61
2019-06-27T06:34:07.038Z,1013.63
2019-06-27T06:35:06.889Z,1013.65
2019-06-27T06:36:06.874Z,1013.65
2019-06-27T06:37:08.182Z,1013.74
2019-06-27T06:38:06.863Z,1013.67
2019-06-27T06:39:06.841Z,1013.67
2019-06-27T06:40:06.833Z,1013.71
2019-06-27T06:41:06.829Z,1013.68
2019-06-27T06:42:06.814Z,1013.71
2019-06-27T06:43:06.795Z,1013.70
2019-06-27T06:44:06.774Z,1013.76
2019-06-27T06:45:06.769Z,1013.75
2019-06-27T06:46:06.812Z,1013.76
2019-06-27T06:47:06.752Z,1013.72
2019-06-27T06:48:06.749Z,1013.78
2019-06-27T06:49:06.720Z,1013.77
2019-06-27T06:50:06.705Z,1013.76
2019-06-27T06:51:06.693Z,1013.73
2019-06-27T06:52:06.701Z,1013.74
2019-06-27T06:53:06.670Z,1013.77
2019-06-27T06:54:06.677Z,1013.72
2019-06-27T06:55:06.649Z,1013.74
2019-06-27T06:56:06.641Z,1013.74
2019-06-27T06:57:06.626Z,1013.75
2019-06-27T06:58:06.625Z,1013.76
2019-06-27T06:59:06.753Z,1013.79
2019-06-27T07:00:06.634Z,1013.77
2019-06-27T07:01:06.582Z,1013.81
2019-06-27T07:02:06.571Z,1013.79
2019-06-27T07:03:06.554Z,1013.81
2019-06-27T07:04:06.578Z,1013.84
2019-06-27T07:05:06.709Z,1013.82
2019-06-27T07:06:06.542Z,1013.86
2019-06-27T07:07:06.527Z,1013.86
2019-06-27T07:08:06.509Z,1013.86
2019-06-27T07:09:06.490Z,1013.80
2019-06-27T07:10:06.478Z,1013.86
2019-06-27T07:11:06.486Z,1013.86
2019-06-27T07:12:06.453Z,1013.89
2019-06-27T07:13:06.451Z,1013.91
2019-06-27T07:14:06.438Z,1013.88
2019-06-27T07:15:06.425Z,1013.92
2019-06-27T07:16:06.426Z,1013.90
2019-06-27T07:17:06.409Z,1013.92
2019-06-27T07:18:06.389Z,1013.92
2019-06-27T07:19:06.403Z,1013.90
2019-06-27T07:20:06.367Z,1013.88
2019-06-27T07:21:06.355Z,1013.90
2019-06-27T07:22:06.369Z,1013.92
2019-06-27T07:23:06.334Z,1013.92
2019-06-27T07:24:06.322Z,1013.90
2019-06-27T07:25:06.320Z,1013.86
2019-06-27T07:26:06.327Z,1013.89
2019-06-27T07:27:06.286Z,1013.87
2019-06-27T07:28:06.290Z,1013.92
2019-06-27T07:29:06.262Z,1013.88
2019-06-27T07:30:06.280Z,1013.89
2019-06-27T07:31:17.203Z,1013.88
2019-06-27T07:32:07.230Z,1013.86
2019-06-27T07:33:06.214Z,1013.95
2019-06-27T07:34:06.222Z,1013.94
2019-06-27T07:35:06.194Z,1013.92
2019-06-27T07:36:06.182Z,1013.91
2019-06-27T07:37:06.177Z,1013.89
2019-06-27T07:38:06.190Z,1013.97
2019-06-27T07:39:06.153Z,1014.01
2019-06-27T07:40:06.154Z,1013.95
2019-06-27T07:41:06.126Z,1013.92
2019-06-27T07:42:06.114Z,1013.90
2019-06-27T07:43:06.108Z,1013.89
2019-06-27T07:44:06.102Z,1013.85
2019-06-27T07:45:06.082Z,1013.86
2019-06-27T07:46:06.095Z,1013.81
2019-06-27T07:47:06.057Z,1013.84
2019-06-27T07:48:06.046Z,1013.85
2019-06-27T07:49:06.042Z,1013.86
2019-06-27T07:50:06.028Z,1013.85
2019-06-27T07:51:06.030Z,1013.87
2019-06-27T07:52:06.006Z,1013.87
2019-06-27T07:53:05.998Z,1013.85
2019-06-27T07:54:05.982Z,1013.82
2019-06-27T07:55:05.977Z,1013.83
2019-06-27T07:56:05.957Z,1013.86
2019-06-27T07:57:05.970Z,1013.89
2019-06-27T07:58:05.934Z,1013.88
2019-06-27T07:59:05.922Z,1013.89
2019-06-27T08:00:05.917Z,1013.85
2019-06-27T08:01:05.897Z,1013.86
2019-06-27T08:02:05.911Z,1013.86
2019-06-27T08:03:05.880Z,1013.87
2019-06-27T08:04:05.870Z,1013.93
2019-06-27T08:05:05.858Z,1013.92
2019-06-27T08:06:05.954Z,1013.89
2019-06-27T08:07:05.837Z,1013.85
2019-06-27T08:08:05.835Z,1013.81
2019-06-27T08:09:05.809Z,1013.80
2019-06-27T08:10:05.817Z,1013.84
2019-06-27T08:11:05.786Z,1013.83
2019-06-27T08:12:05.777Z,1013.87
2019-06-27T08:13:05.812Z,1013.86
2019-06-27T08:14:05.758Z,1013.80
2019-06-27T08:15:05.992Z,1013.82
2019-06-27T08:16:05.772Z,1013.82
2019-06-27T08:17:05.721Z,1013.88
2019-06-27T08:18:05.720Z,1013.81
2019-06-27T08:19:05.732Z,1013.87
2019-06-27T08:20:05.694Z,1013.87
2019-06-27T08:21:05.685Z,1013.85
2019-06-27T08:22:05.662Z,1013.85
2019-06-27T08:23:05.658Z,1013.83
2019-06-27T08:24:05.646Z,1013.82
2019-06-27T08:25:05.645Z,1013.87
2019-06-27T08:26:05.634Z,1013.87
2019-06-27T08:27:05.617Z,1013.92
2019-06-27T08:28:05.599Z,1013.91
2019-06-27T08:29:05.599Z,1013.93
2019-06-27T08:30:08.224Z,1013.84
2019-06-27T08:31:05.558Z,1013.90
2019-06-27T08:32:05.566Z,1013.91
2019-06-27T08:33:05.562Z,1013.87
2019-06-27T08:34:05.530Z,1013.86
2019-06-27T08:35:05.518Z,1013.91
2019-06-27T08:36:05.502Z,1013.90
2019-06-27T08:37:05.494Z,1013.88
2019-06-27T08:38:05.535Z,1013.85
2019-06-27T08:39:05.490Z,1013.90
2019-06-27T08:40:05.466Z,1013.88
2019-06-27T08:41:05.450Z,1013.89
2019-06-27T08:42:05.440Z,1013.89
2019-06-27T08:43:05.431Z,1013.89
2019-06-27T08:44:05.433Z,1013.90
2019-06-27T08:45:05.455Z,1013.86
2019-06-27T08:46:05.397Z,1013.86
2019-06-27T08:47:05.389Z,1013.88
2019-06-27T08:48:05.378Z,1013.82
2019-06-27T08:49:05.366Z,1013.80
2019-06-27T08:50:05.368Z,1013.88
2019-06-27T08:51:05.343Z,1013.83
2019-06-27T08:52:05.351Z,1013.76
2019-06-27T08:53:05.317Z,1013.80
2019-06-27T08:54:05.323Z,1013.84
2019-06-27T08:55:05.295Z,1013.77
2019-06-27T08:56:05.300Z,1013.81
2019-06-27T08:57:05.294Z,1013.81
2019-06-27T08:58:05.263Z,1013.82
2019-06-27T08:59:05.255Z,1013.83
2019-06-27T09:00:05.237Z,1013.77
2019-06-27T09:01:05.226Z,1013.80
2019-06-27T09:02:09.017Z,1013.81
2019-06-27T09:03:05.227Z,1013.75
2019-06-27T09:04:05.203Z,1013.78
2019-06-27T09:05:05.187Z,1013.80
2019-06-27T09:06:05.177Z,1013.75
2019-06-27T09:07:05.161Z,1013.80
2019-06-27T09:08:05.158Z,1013.77
2019-06-27T09:09:05.145Z,1013.79
2019-06-27T09:10:05.125Z,1013.79
2019-06-27T09:11:05.114Z,1013.78
2019-06-27T09:12:05.106Z,1013.74
2019-06-27T09:13:05.099Z,1013.72
2019-06-27T09:14:05.089Z,1013.74
2019-06-27T09:15:05.090Z,1013.67
2019-06-27T09:16:05.079Z,1013.72
2019-06-27T09:17:05.061Z,1013.72
2019-06-27T09:18:05.034Z,1013.76
2019-06-27T09:19:05.026Z,1013.74
2019-06-27T09:20:05.054Z,1013.75
2019-06-27T09:21:05.040Z,1013.74
2019-06-27T09:22:05.002Z,1013.77
2019-06-27T09:23:05.009Z,1013.77
2019-06-27T09:24:04.970Z,1013.70
2019-06-27T09:25:04.954Z,1013.69
2019-06-27T09:26:04.982Z,1013.69
2019-06-27T09:27:04.930Z,1013.68
2019-06-27T09:28:04.949Z,1013.68
2019-06-27T09:29:04.912Z,1013.67
2019-06-27T09:30:04.904Z,1013.68
2019-06-27T09:31:04.894Z,1013.70
2019-06-27T09:32:04.912Z,1013.76
2019-06-27T09:33:04.866Z,1013.70
2019-06-27T09:34:04.858Z,1013.71
2019-06-27T09:35:04.845Z,1013.72
2019-06-27T09:36:04.856Z,1013.71
2019-06-27T09:37:04.826Z,1013.70
2019-06-27T09:38:04.823Z,1013.69
2019-06-27T09:39:04.798Z,1013.70
2019-06-27T09:40:04.789Z,1013.69
2019-06-27T09:41:04.777Z,1013.62
2019-06-27T09:42:04.766Z,1013.57
2019-06-27T09:43:04.752Z,1013.61
2019-06-27T09:44:04.756Z,1013.61
2019-06-27T09:45:04.725Z,1013.58
2019-06-27T09:46:04.720Z,1013.61
2019-06-27T09:47:04.714Z,1013.66
2019-06-27T09:48:04.699Z,1013.59
2019-06-27T09:49:04.706Z,1013.63
2019-06-27T09:50:04.709Z,1013.63
2019-06-27T09:51:04.659Z,1013.66
2019-06-27T09:52:04.658Z,1013.63
2019-06-27T09:53:04.638Z,1013.71
2019-06-27T09:54:04.628Z,1013.68
2019-06-27T09:55:04.633Z,1013.75
2019-06-27T09:56:04.618Z,1013.70
2019-06-27T09:57:04.618Z,1013.67
2019-06-27T09:58:04.595Z,1013.64
2019-06-27T09:59:04.594Z,1013.68
2019-06-27T10:00:04.558Z,1013.72
2019-06-27T10:01:06.182Z,1013.66
2019-06-27T10:02:04.539Z,1013.71
2019-06-27T10:03:04.532Z,1013.67
2019-06-27T10:04:04.514Z,1013.68
2019-06-27T10:05:04.533Z,1013.64
2019-06-27T10:06:04.509Z,1013.62
2019-06-27T10:07:04.482Z,1013.65
2019-06-27T10:08:04.473Z,1013.61
2019-06-27T10:09:04.458Z,1013.60
2019-06-27T10:10:04.450Z,1013.53
2019-06-27T10:11:04.450Z,1013.53
2019-06-27T10:12:04.426Z,1013.57
2019-06-27T10:13:04.427Z,1013.53
2019-06-27T10:14:04.417Z,1013.54
2019-06-27T10:15:04.398Z,1013.56
2019-06-27T10:16:04.380Z,1013.58
2019-06-27T10:17:04.377Z,1013.55
2019-06-27T10:18:04.358Z,1013.56
2019-06-27T10:19:04.345Z,1013.61
2019-06-27T10:20:04.356Z,1013.55
2019-06-27T10:21:04.334Z,1013.50
2019-06-27T10:22:04.314Z,1013.57
2019-06-27T10:23:04.301Z,1013.58
2019-06-27T10:24:04.300Z,1013.62
2019-06-27T10:25:04.280Z,1013.61
2019-06-27T10:26:04.285Z,1013.58
2019-06-27T10:27:04.263Z,1013.53
2019-06-27T10:28:04.269Z,1013.52
2019-06-27T10:29:04.239Z,1013.54
2019-06-27T10:30:04.227Z,1013.52
2019-06-27T10:31:04.233Z,1013.52
2019-06-27T10:32:04.228Z,1013.54
2019-06-27T10:33:04.203Z,1013.52
2019-06-27T10:34:04.178Z,1013.51
2019-06-27T10:35:04.174Z,1013.54
2019-06-27T10:36:04.181Z,1013.51
2019-06-27T10:37:04.162Z,1013.55
2019-06-27T10:38:04.137Z,1013.54
2019-06-27T10:39:04.123Z,1013.52
2019-06-27T10:40:04.110Z,1013.49
2019-06-27T10:41:04.117Z,1013.56
2019-06-27T10:42:04.096Z,1013.53
2019-06-27T10:43:04.110Z,1013.57
2019-06-27T10:44:04.066Z,1013.54
2019-06-27T10:45:04.056Z,1013.52
2019-06-27T10:46:04.062Z,1013.48
2019-06-27T10:47:04.042Z,1013.41
2019-06-27T10:48:04.029Z,1013.45
2019-06-27T10:49:04.013Z,1013.50
2019-06-27T10:50:04.005Z,1013.40
2019-06-27T10:51:03.989Z,1013.46
2019-06-27T10:52:03.985Z,1013.48
2019-06-27T10:53:03.977Z,1013.49
2019-06-27T10:54:03.961Z,1013.44
2019-06-27T10:55:03.952Z,1013.48
2019-06-27T10:56:03.929Z,1013.44
2019-06-27T10:57:03.954Z,1013.46
2019-06-27T10:58:03.920Z,1013.48
2019-06-27T10:59:03.897Z,1013.45
2019-06-27T11:00:03.887Z,1013.44
2019-06-27T11:01:03.898Z,1013.46
2019-06-27T11:02:03.867Z,1013.39
2019-06-27T11:03:14.950Z,1013.38
2019-06-27T11:04:04.856Z,1013.42
2019-06-27T11:05:03.854Z,1013.41
2019-06-27T11:06:03.815Z,1013.36
2019-06-27T11:07:03.813Z,1013.35
2019-06-27T11:08:03.810Z,1013.34
2019-06-27T11:09:03.795Z,1013.31
2019-06-27T11:10:03.778Z,1013.32
2019-06-27T11:11:03.783Z,1013.32
2019-06-27T11:12:03.769Z,1013.36
2019-06-27T11:13:03.753Z,1013.36
2019-06-27T11:14:03.751Z,1013.32
2019-06-27T11:15:03.719Z,1013.31
2019-06-27T11:16:03.702Z,1013.31
2019-06-27T11:17:03.708Z,1013.35
2019-06-27T11:18:03.692Z,1013.39
2019-06-27T11:19:03.678Z,1013.38
2019-06-27T11:20:03.687Z,1013.39
2019-06-27T11:21:03.660Z,1013.39
2019-06-27T11:22:03.657Z,1013.39
2019-06-27T11:23:03.633Z,1013.36
2019-06-27T11:24:03.622Z,1013.33
2019-06-27T11:25:03.618Z,1013.34
2019-06-27T11:26:03.619Z,1013.36
2019-06-27T11:27:03.605Z,1013.38
2019-06-27T11:28:03.583Z,1013.32
2019-06-27T11:29:03.565Z,1013.30
2019-06-27T11:30:03.561Z,1013.27
2019-06-27T11:31:03.558Z,1013.26
2019-06-27T11:32:03.542Z,1013.25
2019-06-27T11:33:03.518Z,1013.30
2019-06-27T11:34:03.517Z,1013.26
2019-06-27T11:35:03.496Z,1013.25
2019-06-27T11:36:03.510Z,1013.26
2019-06-27T11:37:03.483Z,1013.31
2019-06-27T11:38:03.489Z,1013.24
2019-06-27T11:39:03.451Z,1013.22
2019-06-27T11:40:03.434Z,1013.19
2019-06-27T11:41:03.426Z,1013.19
2019-06-27T11:42:03.419Z,1013.17
2019-06-27T11:43:03.405Z,1013.23
2019-06-27T11:44:03.409Z,1013.21
2019-06-27T11:45:03.390Z,1013.21
2019-06-27T11:46:03.457Z,1013.24
2019-06-27T11:47:03.370Z,1013.29
2019-06-27T11:48:03.353Z,1013.26
2019-06-27T11:49:03.343Z,1013.25
2019-06-27T11:50:03.355Z,1013.27
2019-06-27T11:51:03.319Z,1013.22
2019-06-27T11:52:03.338Z,1013.23
2019-06-27T11:53:03.299Z,1013.25
2019-06-27T11:54:03.286Z,1013.21
2019-06-27T11:55:03.270Z,1013.16
2019-06-27T11:56:03.379Z,1013.18
2019-06-27T11:57:03.252Z,1013.23
2019-06-27T11:58:03.242Z,1013.25
2019-06-27T11:59:03.231Z,1013.21
2019-06-27T12:00:03.238Z,1013.24
2019-06-27T12:01:03.263Z,1013.23
2019-06-27T12:02:03.198Z,1013.22
2019-06-27T12:03:03.186Z,1013.17
2019-06-27T12:04:03.169Z,1013.19
2019-06-27T12:05:03.165Z,1013.14